Time;durP1;ratioP1;P1;durP2;ratioP2;P2;SDS_P1;SDS_P2;PMS_P1;PMS_P2;Temp;Humidity;BMP_temperature;BMP_pressure;BME280_temperature;BME280_humidity;BME280_pressure;Samples;Min_cycle;Max_cycle;Signal;HPM_P1;HPM_P2
2022/09/28 00:00:40;;;;;;;5.85;1.42;;;;;;;7.89;100.00;99690.94;5087649;28;20048;-58
2022/09/28 00:03:05;;;;;;;3.78;1.48;;;;;;;7.86;100.00;99691.06;5089945;28;20024;-60
2022/09/28 00:05:31;;;;;;;3.22;1.30;;;;;;;7.88;100.00;99692.72;5085386;28;20395;-59
2022/09/28 00:07:56;;;;;;;6.85;1.60;;;;;;;7.87;100.00;99690.16;5079735;28;20024;-59
2022/09/28 00:10:22;;;;;;;3.85;1.50;;;;;;;7.87;100.00;99692.75;5089128;28;20095;-59
2022/09/28 00:12:51;;;;;;;5.60;1.70;;;;;;;7.87;100.00;99692.75;5088065;28;20475;-61
2022/09/28 00:15:16;;;;;;;;;;;;;;;7.90;100.00;99692.66;5090061;28;20458;-57
2022/09/28 00:17:43;;;;;;;7.50;1.55;;;;;;;7.90;100.00;99690.88;5088935;28;19919;-58
2022/09/28 00:20:10;;;;;;;4.82;1.60;;;;;;;7.87;100.00;99692.75;5088013;28;20158;-59
2022/09/28 00:22:35;;;;;;;3.95;1.63;;;;;;;7.84;100.00;99693.75;5088861;28;20145;-60
2022/09/28 00:25:01;;;;;;;5.00;1.33;;;;;;;7.86;100.00;99698.94;5089528;28;20134;-60
2022/09/28 00:27:26;;;;;;;8.30;1.65;;;;;;;7.88;100.00;99704.97;5088329;28;20028;-60
2022/09/28 00:29:51;;;;;;;2.97;1.40;;;;;;;8.01;100.00;99716.66;5088864;28;20035;-59
2022/09/28 00:32:17;;;;;;;4.35;1.35;;;;;;;8.11;100.00;99726.78;5089948;28;20016;-59
2022/09/28 00:34:47;;;;;;;2.85;1.50;;;;;;;8.18;100.00;99728.22;5088786;28;20036;-60
2022/09/28 00:37:13;;;;;;;3.78;1.20;;;;;;;8.22;100.00;99720.16;5084912;28;20618;-58
2022/09/28 00:39:43;;;;;;;2.33;1.15;;;;;;;8.33;100.00;99711.84;5088291;28;20390;-59
2022/09/28 00:42:26;;;;;;;;;;;;;;;8.38;100.00;99708.16;5089050;28;20027;-59
2022/09/28 00:44:55;;;;;;;1.98;1.10;;;;;;;8.44;100.00;99697.41;5089135;28;19912;-59
2022/09/28 00:47:50;;;;;;;3.80;1.42;;;;;;;8.44;100.00;99697.41;5070876;28;20039;-57
2022/09/28 00:50:20;;;;;;;4.32;1.40;;;;;;;8.46;100.00;99701.66;5066903;28;20020;-59
2022/09/28 00:52:52;;;;;;;6.38;1.40;;;;;;;8.46;100.00;99703.44;5066690;28;20028;-60
2022/09/28 00:55:30;;;;;;;3.53;1.60;;;;;;;8.45;100.00;99692.09;5084645;28;20617;-60
2022/09/28 00:57:57;;;;;;;2.72;1.23;;;;;;;8.49;100.00;99695.41;5087798;28;20227;-57
2022/09/28 01:00:23;;;;;;;2.05;1.00;;;;;;;8.48;100.00;99696.34;5086417;28;20085;-59
2022/09/28 01:02:49;;;;;;;4.78;0.90;;;;;;;8.50;100.00;99705.00;5089077;28;20115;-60
2022/09/28 01:05:15;;;;;;;2.85;0.70;;;;;;;8.50;100.00;99691.03;5087709;28;20119;-58
2022/09/28 01:07:42;;;;;;;2.40;0.80;;;;;;;8.51;100.00;99690.94;5088418;28;20028;-59
2022/09/28 01:10:08;;;;;;;4.00;0.80;;;;;;;8.56;100.00;99682.91;5086845;28;20454;-59
2022/09/28 01:12:33;;;;;;;4.82;1.00;;;;;;;8.57;100.00;99680.22;5088478;28;20048;-58
2022/09/28 01:14:59;;;;;;;2.72;0.75;;;;;;;8.57;100.00;99676.72;5087572;28;20024;-59
2022/09/28 01:17:38;;;;;;;4.32;0.57;;;;;;;8.55;100.00;99687.31;5087296;28;20031;-58
2022/09/28 01:20:25;;;;;;;4.28;0.60;;;;;;;8.56;100.00;99686.41;5086722;28;20459;-59
2022/09/28 01:23:28;;;;;;;3.78;0.52;;;;;;;8.58;100.00;99681.09;5087398;28;20024;-59
2022/09/28 01:26:25;;;;;;;3.13;0.60;;;;;;;8.59;100.00;99688.91;5087696;28;20028;-57
2022/09/28 01:28:56;;;;;;;2.65;0.52;;;;;;;8.60;100.00;99687.09;5088387;28;20044;-58
2022/09/28 01:31:25;;;;;;;2.00;0.95;;;;;;;8.65;100.00;99690.38;5085770;28;20016;-58
2022/09/28 01:33:56;;;;;;;1.55;0.60;;;;;;;8.65;100.00;99689.53;5085730;28;20080;-57
2022/09/28 01:36:29;;;;;;;1.73;0.90;;;;;;;8.68;100.00;99689.38;5086586;28;20026;-58
2022/09/28 01:39:02;;;;;;;4.28;0.90;;;;;;;8.68;100.00;99686.75;5087793;28;20097;-59
2022/09/28 01:41:29;;;;;;;2.15;0.75;;;;;;;8.68;100.00;99684.13;5085725;28;20028;-59
2022/09/28 01:43:56;;;;;;;1.95;0.80;;;;;;;8.70;100.00;99682.31;5087925;28;20032;-59
2022/09/28 01:46:26;;;;;;;5.07;1.00;;;;;;;8.71;100.00;99684.00;5086954;28;20032;-61
2022/09/28 01:49:01;;;;;;;1.27;0.70;;;;;;;8.72;100.00;99681.31;5079493;28;20025;-58
2022/09/28 01:51:38;;;;;;;2.45;0.88;;;;;;;8.72;100.00;99685.69;5065920;28;20103;-60
2022/09/28 01:54:17;;;;;;;1.50;0.63;;;;;;;8.76;100.00;99691.69;5065322;28;20024;-57
2022/09/28 01:57:25;;;;;;;0.80;0.57;;;;;;;8.78;100.00;99693.31;5067673;28;20024;-59
2022/09/28 02:00:17;;;;;;;3.60;0.60;;;;;;;8.77;100.00;99691.63;5007638;28;20030;-60
2022/09/28 02:02:55;;;;;;;3.40;0.65;;;;;;;8.79;100.00;99687.13;5065433;28;20056;-60
2022/09/28 02:05:26;;;;;;;1.67;0.60;;;;;;;8.76;100.00;99702.19;5065510;28;20037;-58
2022/09/28 02:08:06;;;;;;;1.52;0.60;;;;;;;8.76;100.00;99699.56;5079639;28;20040;-56
2022/09/28 02:10:43;;;;;;;1.35;0.70;;;;;;;8.75;100.00;99700.47;5087100;28;20095;-59
2022/09/28 02:13:15;;;;;;;1.52;1.05;;;;;;;8.82;100.00;99702.75;5083553;28;20102;-59
2022/09/28 02:16:03;;;;;;;1.80;0.80;;;;;;;8.83;100.00;99704.47;5085632;28;20028;-57
2022/09/28 02:18:28;;;;;;;2.63;1.10;;;;;;;8.80;100.00;99693.25;5084567;28;20411;-56
2022/09/28 02:21:06;;;;;;;2.88;0.82;;;;;;;8.78;100.00;99693.31;5086666;28;20119;-56
2022/09/28 02:23:34;;;;;;;0.98;0.80;;;;;;;8.74;100.00;99693.50;5085442;28;20429;-58
2022/09/28 02:26:06;;;;;;;1.10;0.83;;;;;;;8.70;100.00;99698.06;5086443;28;20035;-58
2022/09/28 02:28:32;;;;;;;1.40;0.80;;;;;;;8.72;100.00;99706.72;5085949;28;20090;-57
2022/09/28 02:30:57;;;;;;;1.33;0.82;;;;;;;8.77;100.00;99709.13;5083254;28;20052;-57
2022/09/28 02:33:37;;;;;;;2.33;0.82;;;;;;;8.80;100.00;99694.09;5065212;28;20028;-56
2022/09/28 02:36:03;;;;;;;1.83;0.70;;;;;;;8.81;100.00;99680.03;5066952;28;20052;-60
2022/09/28 02:38:30;;;;;;;1.40;0.70;;;;;;;8.80;100.00;99686.22;5070513;28;21006;-59
2022/09/28 02:41:03;;;;;;;2.55;1.00;;;;;;;8.89;100.00;99691.97;5082655;28;20020;-60
2022/09/28 02:43:46;;;;;;;3.33;0.90;;;;;;;8.84;100.00;99700.91;5085699;28;20089;-59
2022/09/28 02:46:20;;;;;;;2.83;1.10;;;;;;;8.84;100.00;99703.53;5084263;28;20549;-60
2022/09/28 02:49:04;;;;;;;0.90;0.77;;;;;;;8.87;100.00;99697.28;5086956;28;20036;-59
2022/09/28 02:51:41;;;;;;;4.00;0.90;;;;;;;8.89;100.00;99697.22;5085435;28;20832;-60
2022/09/28 02:54:43;;;;;;;1.80;0.60;;;;;;;8.82;100.00;99686.16;5085738;28;20057;-61
2022/09/28 02:57:14;;;;;;;2.70;0.75;;;;;;;8.77;100.00;99690.75;5086272;28;20039;-59
2022/09/28 02:59:51;;;;;;;0.80;0.35;;;;;;;8.62;100.00;99694.91;5084631;28;20488;-60
2022/09/28 03:02:54;;;;;;;0.85;0.50;;;;;;;8.49;100.00;99686.69;5065274;28;20029;-58
2022/09/28 03:05:24;;;;;;;1.02;0.63;;;;;;;8.42;100.00;99688.72;5065690;28;20059;-59
2022/09/28 03:07:49;;;;;;;0.40;0.40;;;;;;;8.37;100.00;99683.66;5081947;28;20028;-58
2022/09/28 03:10:21;;;;;;;2.85;0.55;;;;;;;8.31;100.00;99692.66;5086203;28;20119;-60
2022/09/28 03:12:47;;;;;;;1.13;0.50;;;;;;;8.21;100.00;99688.72;5077627;28;20032;-60
2022/09/28 03:15:22;;;;;;;3.00;0.60;;;;;;;8.11;100.00;99685.66;5070503;28;20033;-60
2022/09/28 03:17:47;;;;;;;2.38;0.80;;;;;;;8.08;100.00;99705.00;5082852;28;20032;-56
2022/09/28 03:20:13;;;;;;;2.25;0.82;;;;;;;8.08;100.00;99718.13;5090602;28;20510;-56
2022/09/28 03:22:38;;;;;;;2.08;0.65;;;;;;;8.08;100.00;99722.50;5088613;28;20028;-55
2022/09/28 03:25:06;;;;;;;1.67;0.70;;;;;;;8.10;100.00;99718.06;5090826;28;20020;-57
2022/09/28 03:27:31;;;;;;;1.83;0.57;;;;;;;8.18;100.00;99712.47;5088803;28;20113;-58
2022/09/28 03:29:56;;;;;;;2.20;0.50;;;;;;;8.23;100.00;99700.03;5090003;28;20028;-59
2022/09/28 03:32:22;;;;;;;2.20;0.70;;;;;;;8.31;100.00;99697.91;5087457;28;20081;-58
2022/09/28 03:34:47;;;;;;;1.33;0.50;;;;;;;8.26;100.00;99694.66;5068795;28;20037;-57
2022/09/28 03:37:12;;;;;;;2.05;0.68;;;;;;;8.29;100.00;99699.78;5069686;28;20571;-59
2022/09/28 03:39:38;;;;;;;0.85;0.57;;;;;;;8.30;100.00;99700.59;5088994;28;20490;-59
2022/09/28 03:42:03;;;;;;;0.73;0.50;;;;;;;8.28;100.00;99700.66;5089408;28;20530;-59
2022/09/28 03:44:29;;;;;;;1.73;0.70;;;;;;;8.28;100.00;99695.41;5088753;28;20038;-58
2022/09/28 03:46:54;;;;;;;1.08;0.70;;;;;;;8.33;100.00;99690.84;5089711;28;20689;-57
2022/09/28 03:49:19;;;;;;;1.33;0.70;;;;;;;8.38;100.00;99698.53;5074086;28;20494;-60
2022/09/28 03:51:45;;;;;;;1.55;0.60;;;;;;;8.41;100.00;99706.25;5069577;28;20021;-57
2022/09/28 03:54:11;;;;;;;2.85;0.88;;;;;;;8.41;100.00;99701.00;5080650;28;20036;-58
2022/09/28 03:56:37;;;;;;;1.60;0.80;;;;;;;8.51;100.00;99698.81;5087998;28;20024;-60
2022/09/28 03:59:03;;;;;;;2.30;0.63;;;;;;;8.58;100.00;99688.97;5079417;28;20039;-57
2022/09/28 04:01:28;;;;;;;2.38;1.10;;;;;;;8.58;100.00;99700.28;5068879;28;20024;-59
2022/09/28 04:03:54;;;;;;;2.72;0.82;;;;;;;8.61;100.00;99695.84;5074877;28;20034;-60
2022/09/28 04:06:20;;;;;;;1.30;0.55;;;;;;;8.61;100.00;99694.03;5088573;28;20484;-59
2022/09/28 04:08:46;;;;;;;1.90;0.60;;;;;;;8.58;100.00;99689.78;5088590;28;20024;-59
2022/09/28 04:11:11;;;;;;;1.58;0.60;;;;;;;8.57;100.00;99687.22;5089761;28;20075;-58
2022/09/28 04:13:36;;;;;;;1.23;0.68;;;;;;;8.50;100.00;99691.03;5086576;28;20035;-60
2022/09/28 04:16:03;;;;;;;0.52;0.52;;;;;;;8.39;100.00;99680.97;5089448;28;20032;-61
2022/09/28 04:18:29;;;;;;;0.50;0.50;;;;;;;8.32;100.00;99689.16;5087651;28;20102;-58
2022/09/28 04:21:09;;;;;;;2.08;1.20;;;;;;;8.24;100.00;99693.03;5087455;28;20115;-60
2022/09/28 04:23:35;;;;;;;2.50;0.77;;;;;;;8.18;100.00;99700.22;5087827;28;20020;-57
2022/09/28 04:26:02;;;;;;;2.92;0.68;;;;;;;8.15;100.00;99702.09;5088886;28;20051;-59
2022/09/28 04:31:23;;;;;;;5.80;0.60;;;;;;;8.12;100.00;99692.59;5089074;28;20112;-59
2022/09/28 04:33:48;;;;;;;6.53;1.05;;;;;;;8.07;100.00;99689.34;5086825;28;20452;-60
2022/09/28 04:36:13;;;;;;;2.75;0.60;;;;;;;8.04;100.00;99695.53;5089005;28;20032;-60
2022/09/28 04:38:39;;;;;;;3.92;0.98;;;;;;;8.02;100.00;99697.41;5088788;28;20370;-57
2022/09/28 04:41:05;;;;;;;2.80;0.93;;;;;;;8.01;100.00;99703.53;5071920;28;20380;-57
2022/09/28 04:43:31;;;;;;;2.30;0.80;;;;;;;7.97;100.00;99699.34;5072263;28;20024;-60
2022/09/28 04:46:00;;;;;;;0.50;0.50;;;;;;;7.96;100.00;99698.50;5081964;28;20039;-61
2022/09/28 04:48:26;;;;;;;3.72;0.60;;;;;;;7.92;100.00;99703.94;5087861;28;20020;-60
2022/09/28 04:50:53;;;;;;;2.50;0.70;;;;;;;7.95;100.00;99701.19;5088122;28;20027;-61
2022/09/28 04:53:19;;;;;;;2.92;0.60;;;;;;;7.96;100.00;99710.75;5088744;28;20028;-61
2022/09/28 04:55:44;;;;;;;3.35;0.80;;;;;;;8.00;100.00;99704.47;5088222;28;20089;-59
2022/09/28 04:58:09;;;;;;;1.10;0.60;;;;;;;8.05;100.00;99707.75;5081768;28;20017;-59
2022/09/28 05:00:35;;;;;;;2.35;0.75;;;;;;;8.15;100.00;99704.72;5081358;28;20024;-60
2022/09/28 05:03:00;;;;;;;4.38;0.75;;;;;;;8.19;100.00;99704.53;5087619;28;20026;-60
2022/09/28 05:05:26;;;;;;;1.75;0.70;;;;;;;8.26;100.00;99709.53;5088125;28;20755;-59
2022/09/28 05:07:51;;;;;;;1.08;0.60;;;;;;;8.31;100.00;99697.91;5088491;28;20020;-60
2022/09/28 05:10:18;;;;;;;2.83;0.75;;;;;;;8.36;100.00;99699.50;5088917;28;20100;-59
2022/09/28 05:12:44;;;;;;;2.55;0.82;;;;;;;8.37;100.00;99698.59;5088443;28;20024;-59
2022/09/28 05:15:09;;;;;;;2.10;0.75;;;;;;;8.39;100.00;99699.34;5087792;28;20385;-60
2022/09/28 05:17:34;;;;;;;1.48;0.77;;;;;;;8.44;100.00;99705.28;5082666;28;20696;-60
2022/09/28 05:20:01;;;;;;;5.45;1.02;;;;;;;8.53;100.00;99704.00;5087902;28;20032;-59
2022/09/28 05:22:27;;;;;;;4.53;0.90;;;;;;;8.54;100.00;99703.97;5087109;28;20020;-61
2022/09/28 05:24:53;;;;;;;2.88;0.70;;;;;;;8.56;100.00;99715.28;5087379;28;20028;-60
2022/09/28 05:27:19;;;;;;;3.40;0.90;;;;;;;8.61;100.00;99707.19;5087008;28;20082;-60
2022/09/28 05:29:44;;;;;;;1.88;0.63;;;;;;;8.64;100.00;99711.47;5087725;28;20024;-59
2022/09/28 05:32:10;;;;;;;2.97;0.80;;;;;;;8.62;100.00;99716.78;5087979;28;20028;-61
2022/09/28 05:34:35;;;;;;;1.55;0.40;;;;;;;8.64;100.00;99717.53;5086365;28;20028;-60
2022/09/28 05:37:00;;;;;;;5.75;0.75;;;;;;;8.68;100.00;99715.66;5086440;28;20028;-61
2022/09/28 05:39:26;;;;;;;1.98;0.88;;;;;;;8.70;100.00;99714.66;5086899;28;20055;-59
2022/09/28 05:41:51;;;;;;;4.13;0.75;;;;;;;8.78;100.00;99708.22;5087194;28;20474;-61
2022/09/28 05:44:16;;;;;;;2.15;1.05;;;;;;;8.83;100.00;99704.47;5088031;28;20127;-59
2022/09/28 05:46:42;;;;;;;4.30;0.80;;;;;;;8.87;100.00;99699.06;5078520;28;20017;-59
2022/09/28 05:49:07;;;;;;;1.10;0.68;;;;;;;8.89;100.00;99702.47;5066289;28;20467;-60
2022/09/28 05:51:32;;;;;;;1.15;0.40;;;;;;;8.87;100.00;99710.44;5069932;28;20043;-59
2022/09/28 05:53:58;;;;;;;0.82;0.70;;;;;;;8.87;100.00;99712.19;5087900;28;20027;-58
2022/09/28 05:56:23;;;;;;;0.77;0.50;;;;;;;8.85;100.00;99715.75;5086651;28;20085;-60
2022/09/28 05:58:48;;;;;;;0.52;0.32;;;;;;;8.89;100.00;99721.72;5087388;28;20063;-59
2022/09/28 06:01:14;;;;;;;3.30;0.50;;;;;;;8.91;100.00;99721.66;5087221;28;20036;-58
2022/09/28 06:03:39;;;;;;;3.03;0.60;;;;;;;8.95;100.00;99720.59;5085791;28;20611;-59
2022/09/28 06:06:05;;;;;;;2.65;0.73;;;;;;;8.97;100.00;99710.84;5071184;28;20110;-59
2022/09/28 06:08:31;;;;;;;1.33;0.60;;;;;;;8.97;100.00;99714.34;5078535;28;20028;-59
2022/09/28 06:11:00;;;;;;;0.77;0.63;;;;;;;8.98;100.00;99704.69;5085529;28;20020;-59
2022/09/28 06:13:26;;;;;;;1.60;0.60;;;;;;;9.04;100.00;99704.44;5080508;28;20020;-59
2022/09/28 06:15:52;;;;;;;0.90;0.52;;;;;;;8.96;100.00;99704.78;5076290;28;20040;-57
2022/09/28 06:18:17;;;;;;;1.05;0.52;;;;;;;8.96;100.00;99704.78;5078570;28;20081;-60
2022/09/28 06:20:43;;;;;;;1.20;0.50;;;;;;;8.93;100.00;99702.28;5075785;28;20518;-60
2022/09/28 06:23:09;;;;;;;1.92;0.70;;;;;;;8.91;100.00;99716.41;5077593;28;20020;-59
2022/09/28 06:25:35;;;;;;;2.40;0.80;;;;;;;8.86;100.00;99719.25;5076481;28;20354;-59
2022/09/28 06:28:11;;;;;;;5.00;0.88;;;;;;;8.84;100.00;99716.69;5074314;28;20020;-59
2022/09/28 06:30:37;;;;;;;1.05;0.93;;;;;;;8.91;100.00;99722.50;5081474;28;20020;-59
2022/09/28 06:33:03;;;;;;;1.10;1.00;;;;;;;9.01;100.00;99722.94;5084892;28;20020;-60
2022/09/28 06:35:29;;;;;;;4.45;2.25;;;;;;;9.08;100.00;99723.50;5085050;28;20515;-60
2022/09/28 06:37:56;;;;;;;5.32;1.45;;;;;;;9.20;100.00;99724.72;5079860;28;20028;-60
2022/09/28 06:40:22;;;;;;;3.20;0.80;;;;;;;9.31;100.00;99725.09;5081443;28;20044;-59
2022/09/28 06:43:01;;;;;;;1.50;0.52;;;;;;;9.47;100.00;99724.38;5086025;28;20055;-59
2022/09/28 06:45:28;;;;;;;3.97;0.80;;;;;;;9.71;100.00;99729.38;5076859;28;20452;-58
2022/09/28 06:47:55;;;;;;;2.38;0.70;;;;;;;9.92;100.00;99735.38;5077668;28;20035;-60
2022/09/28 06:50:21;;;;;;;0.93;0.70;;;;;;;10.07;100.00;99731.16;5080723;28;20023;-60
2022/09/28 06:52:49;;;;;;;2.85;0.77;;;;;;;10.32;100.00;99729.91;5080827;28;20385;-60
2022/09/28 06:55:14;;;;;;;1.67;0.90;;;;;;;10.31;100.00;99728.22;5081360;28;20023;-60
2022/09/28 06:57:40;;;;;;;1.25;0.60;;;;;;;10.65;100.00;99743.25;5080448;28;20025;-59
2022/09/28 07:00:06;;;;;;;1.65;1.15;;;;;;;10.74;100.00;99740.09;5080292;28;20012;-59
2022/09/28 07:02:31;;;;;;;2.75;0.90;;;;;;;10.98;100.00;99755.56;5083389;28;20369;-60
2022/09/28 07:04:56;;;;;;;3.28;0.77;;;;;;;11.16;100.00;99756.38;5078485;28;20100;-62
2022/09/28 07:07:22;;;;;;;1.70;0.52;;;;;;;11.43;100.00;99750.53;5078836;28;20020;-62
2022/09/28 07:09:47;;;;;;;2.47;0.70;;;;;;;11.58;100.00;99745.31;5077072;28;20159;-61
2022/09/28 07:12:12;;;;;;;2.85;1.42;;;;;;;11.67;100.00;99747.47;5088580;28;20110;-59
2022/09/28 07:14:38;;;;;;;2.35;0.70;;;;;;;11.76;100.00;99743.44;5089109;28;20155;-60
2022/09/28 07:17:06;;;;;;;3.17;0.90;;;;;;;11.70;100.00;99742.00;5078066;28;20070;-61
2022/09/28 07:19:32;;;;;;;1.35;0.90;;;;;;;11.65;100.00;99738.75;5072041;28;20025;-62
2022/09/28 07:21:58;;;;;;;2.60;0.90;;;;;;;11.62;100.00;99750.34;5086573;28;20039;-60
2022/09/28 07:24:23;;;;;;;3.40;1.40;;;;;;;11.55;100.00;99748.13;5089336;28;20478;-60
2022/09/28 07:26:49;;;;;;;0.98;0.93;;;;;;;11.54;100.00;99757.84;5089454;28;20032;-60
2022/09/28 07:29:15;;;;;;;3.35;0.82;;;;;;;11.49;100.00;99763.38;5090605;28;20028;-59
2022/09/28 07:31:40;;;;;;;2.90;0.80;;;;;;;11.37;100.00;99757.00;5088887;28;20024;-61
2022/09/28 07:34:06;;;;;;;3.60;0.93;;;;;;;11.30;100.00;99766.19;5089316;28;20027;-61
2022/09/28 07:36:33;;;;;;;2.80;0.88;;;;;;;11.11;100.00;99764.53;5086397;28;20063;-59
2022/09/28 07:39:00;;;;;;;2.20;1.30;;;;;;;11.14;100.00;99768.81;5077313;28;20547;-59
2022/09/28 07:41:32;;;;;;;2.17;1.00;;;;;;;11.19;100.00;99768.53;5078150;28;20040;-61
2022/09/28 07:44:04;;;;;;;4.45;1.33;;;;;;;11.25;100.00;99776.97;5089489;28;20052;-60
2022/09/28 07:46:34;;;;;;;6.43;1.30;;;;;;;11.30;100.00;99773.22;5088062;28;20599;-60
2022/09/28 07:48:59;;;;;;;3.67;1.17;;;;;;;11.34;100.00;99774.75;5088538;28;20026;-60
2022/09/28 07:51:25;;;;;;;2.53;1.00;;;;;;;11.31;100.00;99770.50;5078586;28;20115;-58
2022/09/28 07:53:52;;;;;;;2.42;1.35;;;;;;;11.41;100.00;99764.75;5068244;28;20025;-59
2022/09/28 07:56:19;;;;;;;4.47;1.15;;;;;;;11.45;100.00;99763.63;5074700;28;20057;-63
2022/09/28 07:58:45;;;;;;;1.92;1.25;;;;;;;11.51;100.00;99779.13;5086971;28;20468;-59
2022/09/28 08:01:14;;;;;;;6.45;1.35;;;;;;;11.59;100.00;99770.78;5079428;28;20034;-60
2022/09/28 08:03:39;;;;;;;3.65;0.90;;;;;;;11.67;100.00;99778.25;5067084;28;20123;-62
2022/09/28 08:06:06;;;;;;;3.00;0.93;;;;;;;11.74;100.00;99782.28;5073924;28;20135;-56
2022/09/28 08:08:35;;;;;;;4.97;1.15;;;;;;;11.81;100.00;99793.34;5088026;28;20478;-59
2022/09/28 08:11:01;;;;;;;4.97;1.10;;;;;;;11.85;100.00;99793.09;5086854;28;20024;-59
2022/09/28 08:13:26;;;;;;;5.22;1.17;;;;;;;11.92;100.00;99790.09;5086367;28;20086;-58
2022/09/28 08:15:59;;;;;;;3.10;0.88;;;;;;;11.99;100.00;99788.81;5086982;28;20032;-60
2022/09/28 08:18:25;;;;;;;1.80;0.90;;;;;;;12.12;100.00;99789.00;5087225;28;20028;-60
2022/09/28 08:23:37;;;;;;;1.67;0.85;;;;;;;12.32;97.48;99795.78;5068378;28;20039;-60
2022/09/28 08:26:03;;;;;;;3.20;0.98;;;;;;;12.35;98.33;99800.03;5067152;28;20070;-60
2022/09/28 08:28:28;;;;;;;2.63;0.80;;;;;;;12.47;98.47;99798.44;5084454;28;20028;-60
2022/09/28 08:30:53;;;;;;;2.42;0.60;;;;;;;12.58;97.09;99797.84;5087386;28;20421;-59
2022/09/28 08:33:22;;;;;;;2.15;0.80;;;;;;;12.68;96.04;99800.78;5079258;28;20073;-60
2022/09/28 08:35:56;;;;;;;1.95;0.80;;;;;;;12.73;95.97;99801.31;5087854;28;20024;-62
2022/09/28 08:38:22;;;;;;;4.20;1.08;;;;;;;12.84;95.85;99806.84;5086456;28;20024;-59
2022/09/28 08:41:11;;;;;;;2.35;0.90;;;;;;;13.05;94.19;99800.34;5087552;28;20089;-60
2022/09/28 08:43:39;;;;;;;1.98;1.00;;;;;;;13.28;91.79;99804.22;5086339;28;20115;-59
2022/09/28 08:46:05;;;;;;;1.45;0.80;;;;;;;13.48;91.67;99805.63;5087339;28;20036;-59
2022/09/28 08:48:43;;;;;;;2.83;1.00;;;;;;;13.68;90.01;99805.31;5085866;28;20090;-59
2022/09/28 08:51:17;;;;;;;2.03;0.65;;;;;;;13.91;88.79;99811.81;5086053;28;20494;-60
2022/09/28 08:54:19;;;;;;;3.30;0.90;;;;;;;14.04;87.82;99811.84;5086172;28;20016;-60
2022/09/28 08:56:52;;;;;;;4.63;1.00;;;;;;;14.28;86.76;99813.84;5086691;28;20425;-58
2022/09/28 08:59:20;;;;;;;1.80;1.05;;;;;;;14.49;85.90;99822.19;5076472;28;20071;-59
2022/09/28 09:02:02;;;;;;;3.57;1.03;;;;;;;14.58;84.46;99819.84;5065627;28;20035;-60
2022/09/28 09:04:27;;;;;;;3.55;0.35;;;;;;;14.68;82.93;99822.72;5066203;28;20330;-59
2022/09/28 09:07:11;;;;;;;2.67;0.40;;;;;;;14.64;83.52;99825.59;5065247;28;20119;-60
2022/09/28 09:10:06;;;;;;;2.50;0.60;;;;;;;14.75;82.37;99831.97;5076030;28;20028;-59
2022/09/28 09:12:40;;;;;;;1.67;0.63;;;;;;;14.75;83.45;99832.81;5056686;28;20052;-59
2022/09/28 09:15:12;;;;;;;1.73;0.52;;;;;;;14.77;83.45;99832.72;5084992;28;20474;-59
2022/09/28 09:17:40;;;;;;;1.13;0.63;;;;;;;14.61;85.02;99830.25;5084543;28;20039;-60
2022/09/28 09:20:17;;;;;;;4.38;0.63;;;;;;;14.46;85.78;99832.13;5085951;28;20032;-60
2022/09/28 09:22:51;;;;;;;1.73;0.60;;;;;;;14.21;86.83;99828.44;5068712;28;20322;-60
2022/09/28 09:25:26;;;;;;;1.95;0.57;;;;;;;13.99;86.52;99841.28;5086075;28;20146;-57
2022/09/28 09:28:04;;;;;;;1.60;0.60;;;;;;;13.72;86.33;99835.94;5086722;28;20043;-60
2022/09/28 09:30:40;;;;;;;1.15;0.50;;;;;;;13.46;88.21;99836.59;5084383;28;20020;-59
2022/09/28 09:33:23;;;;;;;1.15;0.57;;;;;;;13.29;89.96;99831.50;5084516;28;20051;-60
2022/09/28 09:36:10;;;;;;;0.55;0.45;;;;;;;13.11;90.29;99832.56;5084994;28;20673;-59
2022/09/28 09:38:57;;;;;;;2.05;0.60;;;;;;;13.01;91.27;99842.00;5084515;28;20335;-61
2022/09/28 09:41:46;;;;;;;2.08;0.50;;;;;;;13.07;92.48;99844.28;5085592;28;20038;-60
2022/09/28 09:44:37;;;;;;;3.60;0.70;;;;;;;13.04;91.76;99838.31;5085945;28;20037;-61
2022/09/28 09:47:13;;;;;;;0.40;0.40;;;;;;;13.23;91.57;99843.31;5086301;28;20024;-62
2022/09/28 09:49:50;;;;;;;1.35;0.55;;;;;;;13.30;89.11;99835.88;5084526;28;20046;-60
2022/09/28 09:52:26;;;;;;;0.95;0.40;;;;;;;13.42;88.65;99848.31;5085719;28;20046;-62
2022/09/28 09:55:13;;;;;;;0.43;0.40;;;;;;;13.45;87.92;99842.84;5084414;28;20394;-58
2022/09/28 09:57:43;;;;;;;2.17;0.55;;;;;;;13.63;87.96;99835.59;5066801;28;20028;-61
2022/09/28 10:00:13;;;;;;;3.30;0.90;;;;;;;13.76;88.25;99840.94;5067386;28;20021;-60
2022/09/28 10:02:39;;;;;;;1.13;0.40;;;;;;;13.90;86.93;99834.78;5085305;28;20039;-60
2022/09/28 10:05:10;;;;;;;1.98;0.30;;;;;;;14.10;86.17;99840.59;5085019;28;20394;-62
2022/09/28 10:07:40;;;;;;;2.47;0.50;;;;;;;14.30;84.01;99833.13;5066042;28;20029;-60
2022/09/28 10:10:13;;;;;;;1.42;0.65;;;;;;;14.55;83.41;99835.97;5065200;28;20017;-60
2022/09/28 10:12:38;;;;;;;2.20;0.32;;;;;;;14.81;81.26;99836.88;5085761;28;20036;-62
2022/09/28 10:15:06;;;;;;;2.17;0.55;;;;;;;15.05;82.12;99835.31;5085417;28;20042;-59
2022/09/28 10:17:32;;;;;;;1.25;0.50;;;;;;;15.28;81.59;99837.22;5080666;28;20385;-60
2022/09/28 10:19:58;;;;;;;2.33;0.60;;;;;;;15.49;80.70;99838.47;5084471;28;20020;-59
2022/09/28 10:22:25;;;;;;;2.05;0.60;;;;;;;15.72;79.82;99843.94;5084113;28;20111;-59
2022/09/28 10:24:55;;;;;;;2.28;0.50;;;;;;;15.89;77.74;99843.56;5084349;28;20032;-61
2022/09/28 10:27:24;;;;;;;1.05;0.60;;;;;;;16.03;76.10;99841.75;5084761;28;20023;-60
2022/09/28 10:29:53;;;;;;;2.17;0.65;;;;;;;15.93;74.25;99838.91;5084198;28;20031;-60
2022/09/28 10:32:22;;;;;;;2.53;0.40;;;;;;;15.85;74.66;99833.28;5078332;28;20479;-62
2022/09/28 10:34:47;;;;;;;;;;;;;;;15.66;76.18;99838.09;5066160;28;20497;-61
2022/09/28 10:37:14;;;;;;;4.93;0.50;;;;;;;15.77;76.48;99839.13;5067413;28;20324;-61
2022/09/28 10:39:54;;;;;;;2.00;0.63;;;;;;;15.86;75.38;99830.50;5064347;28;20052;-60
2022/09/28 10:42:26;;;;;;;3.50;0.45;;;;;;;15.93;75.28;99836.25;5064627;28;20029;-60
2022/09/28 10:45:13;;;;;;;1.00;0.38;;;;;;;16.22;73.88;99830.63;5081436;28;20035;-61
2022/09/28 10:47:42;;;;;;;3.83;0.20;;;;;;;16.27;73.64;99848.88;5063806;28;20032;-60
2022/09/28 10:50:19;;;;;;;11.88;0.60;;;;;;;16.66;72.16;99841.56;5085982;28;20028;-61
2022/09/28 10:52:45;;;;;;;1.98;0.60;;;;;;;17.13;69.87;99831.88;5083110;28;20012;-61
2022/09/28 10:55:19;;;;;;;4.25;0.60;;;;;;;17.40;67.32;99828.84;5086105;28;20032;-59
2022/09/28 10:57:45;;;;;;;0.38;0.35;;;;;;;17.48;67.97;99836.22;5085182;28;20396;-61
2022/09/28 11:00:39;;;;;;;2.60;0.47;;;;;;;17.25;66.29;99828.25;5064375;28;20025;-61
2022/09/28 11:03:05;;;;;;;0.30;0.20;;;;;;;17.32;65.22;99823.28;5062667;28;20024;-60
2022/09/28 11:05:31;;;;;;;1.05;0.20;;;;;;;17.46;65.62;99832.84;5084501;28;20127;-62
2022/09/28 11:08:04;;;;;;;0.55;0.30;;;;;;;17.59;63.58;99826.53;5083428;28;20431;-62
2022/09/28 11:10:31;;;;;;;1.30;1.15;;;;;;;17.23;61.38;99824.88;5083615;28;20077;-61
2022/09/28 11:12:56;;;;;;;3.70;1.30;;;;;;;17.60;61.14;99828.22;5083380;28;20367;-61
2022/09/28 11:15:28;;;;;;;1.48;0.52;;;;;;;17.75;61.05;99831.47;5066159;28;20036;-60
2022/09/28 11:17:54;;;;;;;2.47;0.40;;;;;;;17.67;61.57;99832.13;5074452;28;20077;-62
2022/09/28 11:20:22;;;;;;;2.72;0.30;;;;;;;17.48;62.91;99825.59;5077202;28;20025;-64
2022/09/28 11:22:48;;;;;;;1.00;0.22;;;;;;;17.26;64.07;99826.44;5073796;28;20452;-62
2022/09/28 11:25:16;;;;;;;2.10;0.50;;;;;;;16.95;65.19;99826.13;5073376;28;20070;-62
2022/09/28 11:28:03;;;;;;;1.02;0.25;;;;;;;16.79;65.86;99822.84;5072056;28;20275;-60
2022/09/28 11:30:50;;;;;;;0.98;0.40;;;;;;;16.75;66.10;99825.84;5080796;28;20024;-60
2022/09/28 11:33:27;;;;;;;1.05;0.38;;;;;;;16.55;67.21;99833.53;5084925;28;20118;-60
2022/09/28 11:36:13;;;;;;;1.35;0.40;;;;;;;16.21;67.12;99830.72;5079354;28;20111;-59
2022/09/28 11:39:03;;;;;;;1.50;0.10;;;;;;;16.23;67.77;99832.34;5079009;28;20040;-59
2022/09/28 11:41:57;;;;;;;1.55;0.50;;;;;;;16.08;66.90;99831.66;5080450;28;20028;-61
2022/09/28 11:44:37;;;;;;;0.55;0.22;;;;;;;15.88;68.59;99836.56;5080399;28;20036;-61
2022/09/28 11:47:29;;;;;;;2.22;0.50;;;;;;;15.70;70.21;99835.22;5086064;28;20449;-62
2022/09/28 11:50:13;;;;;;;2.65;0.93;;;;;;;15.46;72.15;99833.38;5088085;28;20102;-59
2022/09/28 11:52:46;;;;;;;4.20;0.90;;;;;;;15.17;76.80;99837.09;5088005;28;20067;-60
2022/09/28 11:55:23;;;;;;;4.10;0.77;;;;;;;14.88;80.57;99835.53;5085789;28;20016;-61